sensor_id;sensor_type;location;lat;lon;timestamp;pressure;altitude;pressure_sealevel;temperature;humidity
17254;BME280;32542;52.832;13.816;2023-03-22T00:00:36;101086.56;;;21.87;47.24
17254;BME280;32542;52.832;13.816;2023-03-22T00:03:40;101088.38;;;21.86;47.06
17254;BME280;32542;52.832;13.816;2023-03-22T00:06:43;101075.06;;;21.86;47.04
17254;BME280;32542;52.832;13.816;2023-03-22T00:09:46;101073.22;;;21.87;47.06
17254;BME280;32542;52.832;13.816;2023-03-22T00:12:50;101074.09;;;21.87;47.03
17254;BME280;32542;52.832;13.816;2023-03-22T00:15:54;101062.56;;;21.87;47.06
17254;BME280;32542;52.832;13.816;2023-03-22T00:18:58;101062.56;;;21.87;47.08
17254;BME280;32542;52.832;13.816;2023-03-22T00:22:02;101066.19;;;21.86;47.13
17254;BME280;32542;52.832;13.816;2023-03-22T00:25:07;101075.06;;;21.86;47.04
17254;BME280;32542;52.832;13.816;2023-03-22T00:28:12;101070.66;;;21.85;46.87
17254;BME280;32542;52.832;13.816;2023-03-22T00:31:15;101073.41;;;21.84;46.96
17254;BME280;32542;52.832;13.816;2023-03-22T00:34:18;101071.66;;;21.83;46.92
17254;BME280;32542;52.832;13.816;2023-03-22T00:37:21;101070.81;;;21.82;46.91
17254;BME280;32542;52.832;13.816;2023-03-22T00:40:24;101065.56;;;21.79;46.89
17254;BME280;32542;52.832;13.816;2023-03-22T00:43:28;101069.16;;;21.78;46.98
17254;BME280;32542;52.832;13.816;2023-03-22T00:46:31;101056.78;;;21.77;46.97
17254;BME280;32542;52.832;13.816;2023-03-22T00:49:34;101060.38;;;21.76;46.97
17254;BME280;32542;52.832;13.816;2023-03-22T00:52:38;101055.13;;;21.74;46.97
17254;BME280;32542;52.832;13.816;2023-03-22T00:55:41;101057.78;;;21.74;46.84
17254;BME280;32542;52.832;13.816;2023-03-22T00:58:45;101052.47;;;21.74;46.97
17254;BME280;32542;52.832;13.816;2023-03-22T01:01:48;101051.59;;;21.74;46.85
17254;BME280;32542;52.832;13.816;2023-03-22T01:04:51;101049.88;;;21.73;46.89
17254;BME280;32542;52.832;13.816;2023-03-22T01:07:54;101040.13;;;21.72;46.89
17254;BME280;32542;52.832;13.816;2023-03-22T01:10:59;101049.09;;;21.71;46.80
17254;BME280;32542;52.832;13.816;2023-03-22T01:14:03;101040.31;;;21.69;46.92
17254;BME280;32542;52.832;13.816;2023-03-22T01:17:06;101046.56;;;21.68;46.93
17254;BME280;32542;52.832;13.816;2023-03-22T01:20:11;101047.50;;;21.67;46.96
17254;BME280;32542;52.832;13.816;2023-03-22T01:23:14;101035.97;;;21.66;46.94
17254;BME280;32542;52.832;13.816;2023-03-22T01:26:17;101033.38;;;21.65;46.88
17254;BME280;32542;52.832;13.816;2023-03-22T01:29:21;101034.31;;;21.64;46.96
17254;BME280;32542;52.832;13.816;2023-03-22T01:32:24;101042.31;;;21.64;47.01
17254;BME280;32542;52.832;13.816;2023-03-22T01:35:27;101045.84;;;21.64;46.99
17254;BME280;32542;52.832;13.816;2023-03-22T01:38:31;101039.63;;;21.64;47.01
17254;BME280;32542;52.832;13.816;2023-03-22T01:41:36;101036.97;;;21.64;46.94
17254;BME280;32542;52.832;13.816;2023-03-22T01:48:26;101021.16;;;21.61;46.81
17254;BME280;32542;52.832;13.816;2023-03-22T01:51:29;101022.06;;;21.60;46.94
17254;BME280;32542;52.832;13.816;2023-03-22T01:54:51;101005.22;;;21.59;46.90
17254;BME280;32542;52.832;13.816;2023-03-22T01:58:06;101000.84;;;21.58;46.96
17254;BME280;32542;52.832;13.816;2023-03-22T02:01:23;101000.88;;;21.57;46.75
17254;BME280;32542;52.832;13.816;2023-03-22T02:04:33;101005.38;;;21.56;46.89
17254;BME280;32542;52.832;13.816;2023-03-22T02:07:40;100999.16;;;21.56;46.90
17254;BME280;32542;52.832;13.816;2023-03-22T02:10:44;101003.63;;;21.55;47.03
17254;BME280;32542;52.832;13.816;2023-03-22T02:14:11;100990.31;;;21.55;47.01
17254;BME280;32542;52.832;13.816;2023-03-22T02:17:43;100986.78;;;21.55;47.01
17254;BME280;32542;52.832;13.816;2023-03-22T02:21:22;100984.09;;;21.55;46.97
17254;BME280;32542;52.832;13.816;2023-03-22T02:25:09;100978.78;;;21.55;46.92
17254;BME280;32542;52.832;13.816;2023-03-22T02:28:27;100982.41;;;21.54;46.87
17254;BME280;32542;52.832;13.816;2023-03-22T02:31:46;100973.53;;;21.53;47.00
17254;BME280;32542;52.832;13.816;2023-03-22T02:35:22;100979.81;;;21.52;46.99
17254;BME280;32542;52.832;13.816;2023-03-22T02:38:53;100981.59;;;21.52;46.91
17254;BME280;32542;52.832;13.816;2023-03-22T02:42:10;100987.84;;;21.51;46.88
17254;BME280;32542;52.832;13.816;2023-03-22T02:45:24;100988.81;;;21.50;46.97
17254;BME280;32542;52.832;13.816;2023-03-22T02:48:33;100991.47;;;21.50;46.96
17254;BME280;32542;52.832;13.816;2023-03-22T02:51:41;100985.34;;;21.48;46.94
17254;BME280;32542;52.832;13.816;2023-03-22T02:54:50;100982.69;;;21.48;47.08
17254;BME280;32542;52.832;13.816;2023-03-22T02:57:55;100977.34;;;21.48;47.00
17254;BME280;32542;52.832;13.816;2023-03-22T03:01:03;100977.41;;;21.46;46.93
17254;BME280;32542;52.832;13.816;2023-03-22T03:04:10;100970.28;;;21.47;47.02
17254;BME280;32542;52.832;13.816;2023-03-22T03:07:18;100969.41;;;21.46;46.93
17254;BME280;32542;52.832;13.816;2023-03-22T03:10:26;100970.28;;;21.47;46.98
17254;BME280;32542;52.832;13.816;2023-03-22T03:13:29;100973.91;;;21.46;46.95
17254;BME280;32542;52.832;13.816;2023-03-22T03:16:33;100970.38;;;21.45;46.94
17254;BME280;32542;52.832;13.816;2023-03-22T03:19:41;100973.03;;;21.45;46.93
17254;BME280;32542;52.832;13.816;2023-03-22T03:22:54;100975.69;;;21.45;46.88
17254;BME280;32542;52.832;13.816;2023-03-22T03:26:03;100979.28;;;21.44;46.89
17254;BME280;32542;52.832;13.816;2023-03-22T03:29:13;100981.09;;;21.44;46.98
17254;BME280;32542;52.832;13.816;2023-03-22T03:32:23;100980.25;;;21.43;46.91
17254;BME280;32542;52.832;13.816;2023-03-22T03:35:31;100977.50;;;21.45;46.92
17254;BME280;32542;52.832;13.816;2023-03-22T03:38:41;100967.78;;;21.44;46.90
17254;BME280;32542;52.832;13.816;2023-03-22T03:41:48;100963.28;;;21.44;46.92
17254;BME280;32542;52.832;13.816;2023-03-22T03:44:54;100965.03;;;21.45;46.80
17254;BME280;32542;52.832;13.816;2023-03-22T03:48:00;100957.91;;;21.46;46.83
17254;BME280;32542;52.832;13.816;2023-03-22T03:51:06;100957.84;;;21.47;46.72
17254;BME280;32542;52.832;13.816;2023-03-22T03:54:09;100964.88;;;21.48;46.75
17254;BME280;32542;52.832;13.816;2023-03-22T03:57:14;100968.41;;;21.49;46.88
17254;BME280;32542;52.832;13.816;2023-03-22T04:00:18;100971.06;;;21.49;46.73
17254;BME280;32542;52.832;13.816;2023-03-22T04:03:44;100980.81;;;21.50;46.79
17254;BME280;32542;52.832;13.816;2023-03-22T04:07:05;100983.47;;;21.50;46.86
17254;BME280;32542;52.832;13.816;2023-03-22T04:10:10;100982.53;;;21.51;46.79
17254;BME280;32542;52.832;13.816;2023-03-22T04:13:15;100974.53;;;21.51;46.73
17254;BME280;32542;52.832;13.816;2023-03-22T04:16:19;100979.84;;;21.51;46.84
17254;BME280;32542;52.832;13.816;2023-03-22T04:19:22;100965.63;;;21.52;46.76
17254;BME280;32542;52.832;13.816;2023-03-22T04:22:25;100967.31;;;21.53;46.73
17254;BME280;32542;52.832;13.816;2023-03-22T04:25:28;100967.31;;;21.53;46.80
17254;BME280;32542;52.832;13.816;2023-03-22T04:28:42;100967.31;;;21.53;46.68
17254;BME280;32542;52.832;13.816;2023-03-22T04:31:46;100976.09;;;21.55;46.71
17254;BME280;32542;52.832;13.816;2023-03-22T04:34:59;100972.59;;;21.54;46.74
17254;BME280;32542;52.832;13.816;2023-03-22T04:38:02;100976.09;;;21.55;46.69
17254;BME280;32542;52.832;13.816;2023-03-22T04:41:06;100975.28;;;21.54;46.71
17254;BME280;32542;52.832;13.816;2023-03-22T04:44:16;100974.41;;;21.54;46.75
17254;BME280;32542;52.832;13.816;2023-03-22T04:47:23;100971.72;;;21.54;46.66
17254;BME280;32542;52.832;13.816;2023-03-22T04:50:26;100968.19;;;21.53;46.77
17254;BME280;32542;52.832;13.816;2023-03-22T04:53:34;100962.00;;;21.53;46.82
17254;BME280;32542;52.832;13.816;2023-03-22T04:56:40;100954.00;;;21.53;46.77
17254;BME280;32542;52.832;13.816;2023-03-22T04:59:45;100954.00;;;21.53;46.77
17254;BME280;32542;52.832;13.816;2023-03-22T05:02:48;100951.34;;;21.53;46.74
17254;BME280;32542;52.832;13.816;2023-03-22T05:06:00;100948.69;;;21.53;46.82
17254;BME280;32542;52.832;13.816;2023-03-22T05:09:14;100946.00;;;21.53;46.69
17254;BME280;32542;52.832;13.816;2023-03-22T05:12:17;100953.09;;;21.54;46.69
17254;BME280;32542;52.832;13.816;2023-03-22T05:15:42;100954.78;;;21.55;46.71
17254;BME280;32542;52.832;13.816;2023-03-22T05:18:47;100939.75;;;21.54;46.67
17254;BME280;32542;52.832;13.816;2023-03-22T05:21:54;100939.75;;;21.54;46.75
17254;BME280;32542;52.832;13.816;2023-03-22T05:25:20;100927.34;;;21.53;46.76
17254;BME280;32542;52.832;13.816;2023-03-22T05:28:24;100932.69;;;21.53;46.71
17254;BME280;32542;52.832;13.816;2023-03-22T05:31:50;100933.63;;;21.52;46.71
17254;BME280;32542;52.832;13.816;2023-03-22T05:34:54;100938.97;;;21.52;46.75
17254;BME280;32542;52.832;13.816;2023-03-22T05:38:09;100932.78;;;21.51;46.79
17254;BME280;32542;52.832;13.816;2023-03-22T05:41:17;100939.88;;;21.51;46.77
17254;BME280;32542;52.832;13.816;2023-03-22T05:44:21;100931.91;;;21.51;46.73
17254;BME280;32542;52.832;13.816;2023-03-22T05:47:41;100931.91;;;21.51;46.75
17254;BME280;32542;52.832;13.816;2023-03-22T05:50:47;100938.97;;;21.52;46.66
17254;BME280;32542;52.832;13.816;2023-03-22T05:53:51;100926.56;;;21.51;46.69
17254;BME280;32542;52.832;13.816;2023-03-22T05:56:59;100927.44;;;21.51;46.69
17254;BME280;32542;52.832;13.816;2023-03-22T06:00:03;100928.31;;;21.52;46.71
17254;BME280;32542;52.832;13.816;2023-03-22T06:03:14;100929.19;;;21.52;46.64
17254;BME280;32542;52.832;13.816;2023-03-22T06:06:26;100928.31;;;21.52;46.67
17254;BME280;32542;52.832;13.816;2023-03-22T06:09:50;100928.31;;;21.52;46.72
17254;BME280;32542;52.832;13.816;2023-03-22T06:12:56;100921.19;;;21.52;46.70
17254;BME280;32542;52.832;13.816;2023-03-22T06:16:04;100920.31;;;21.52;46.76
17254;BME280;32542;52.832;13.816;2023-03-22T06:19:09;100918.56;;;21.51;46.90
17254;BME280;32542;52.832;13.816;2023-03-22T06:22:12;100918.56;;;21.51;47.02
17254;BME280;32542;52.832;13.816;2023-03-22T06:25:16;100922.13;;;21.51;47.10
17254;BME280;32542;52.832;13.816;2023-03-22T06:28:20;100920.22;;;21.53;47.12
17254;BME280;32542;52.832;13.816;2023-03-22T06:31:27;100922.03;;;21.53;47.16
17254;BME280;32542;52.832;13.816;2023-03-22T06:34:38;100919.31;;;21.54;47.27
17254;BME280;32542;52.832;13.816;2023-03-22T06:37:42;100920.94;;;21.57;47.11
17254;BME280;32542;52.832;13.816;2023-03-22T06:40:45;100913.91;;;21.56;47.22
17254;BME280;32542;52.832;13.816;2023-03-22T06:43:48;100918.28;;;21.57;47.12
17254;BME280;32542;52.832;13.816;2023-03-22T06:47:09;100929.88;;;21.56;47.08
17254;BME280;32542;52.832;13.816;2023-03-22T06:50:20;100928.94;;;21.57;47.06
17254;BME280;32542;52.832;13.816;2023-03-22T06:53:43;100932.56;;;21.56;47.06
17254;BME280;32542;52.832;13.816;2023-03-22T06:56:47;100945.88;;;21.56;47.02
17254;BME280;32542;52.832;13.816;2023-03-22T06:59:50;100936.13;;;21.55;47.03
17254;BME280;32542;52.832;13.816;2023-03-22T07:02:53;100945.09;;;21.54;47.12
17254;BME280;32542;52.832;13.816;2023-03-22T07:06:10;100942.41;;;21.54;47.10
17254;BME280;32542;52.832;13.816;2023-03-22T07:09:17;100938.88;;;21.53;47.26
17254;BME280;32542;52.832;13.816;2023-03-22T07:12:22;100942.41;;;21.54;47.33
17254;BME280;32542;52.832;13.816;2023-03-22T07:15:26;100937.09;;;21.54;47.44
17254;BME280;32542;52.832;13.816;2023-03-22T07:18:36;100939.66;;;21.55;47.48
17254;BME280;32542;52.832;13.816;2023-03-22T07:21:40;100936.13;;;21.55;47.55
17254;BME280;32542;52.832;13.816;2023-03-22T07:24:45;100935.22;;;21.56;47.55
17254;BME280;32542;52.832;13.816;2023-03-22T07:27:59;100934.25;;;21.57;47.72
17254;BME280;32542;52.832;13.816;2023-03-22T07:31:05;100938.66;;;21.58;47.74
17254;BME280;32542;52.832;13.816;2023-03-22T07:34:19;100936.09;;;21.56;47.75
17254;BME280;32542;52.832;13.816;2023-03-22T07:37:35;100933.34;;;21.58;47.85
17254;BME280;32542;52.832;13.816;2023-03-22T07:40:44;100930.75;;;21.56;47.91
17254;BME280;32542;52.832;13.816;2023-03-22T07:43:48;100921.91;;;21.56;47.79
17254;BME280;32542;52.832;13.816;2023-03-22T07:46:57;100925.44;;;21.56;47.96
17254;BME280;32542;52.832;13.816;2023-03-22T07:50:07;100919.22;;;21.56;48.22
17254;BME280;32542;52.832;13.816;2023-03-22T07:53:13;100909.44;;;21.56;47.94
17254;BME280;32542;52.832;13.816;2023-03-22T07:56:18;100908.56;;;21.56;47.99
17254;BME280;32542;52.832;13.816;2023-03-22T07:59:21;100903.06;;;21.59;47.95
17254;BME280;32542;52.832;13.816;2023-03-22T08:02:25;100897.75;;;21.59;47.87
17254;BME280;32542;52.832;13.816;2023-03-22T08:05:31;100912.81;;;21.60;47.94
17254;BME280;32542;52.832;13.816;2023-03-22T08:08:37;100902.06;;;21.61;47.84
17254;BME280;32542;52.832;13.816;2023-03-22T08:11:40;100893.22;;;21.61;47.77
17254;BME280;32542;52.832;13.816;2023-03-22T08:14:44;100900.28;;;21.62;47.82
17254;BME280;32542;52.832;13.816;2023-03-22T08:17:56;100902.06;;;21.61;47.82
17254;BME280;32542;52.832;13.816;2023-03-22T08:21:07;100904.81;;;21.60;47.89
17254;BME280;32542;52.832;13.816;2023-03-22T08:24:13;100895.91;;;21.61;47.76
17254;BME280;32542;52.832;13.816;2023-03-22T08:27:35;100899.47;;;21.60;47.87
17254;BME280;32542;52.832;13.816;2023-03-22T08:30:38;100898.63;;;21.59;47.82
17254;BME280;32542;52.832;13.816;2023-03-22T08:33:42;100899.47;;;21.60;47.89
17254;BME280;32542;52.832;13.816;2023-03-22T08:36:46;100895.91;;;21.61;47.76
17254;BME280;32542;52.832;13.816;2023-03-22T08:39:51;100889.69;;;21.60;47.73
17254;BME280;32542;52.832;13.816;2023-03-22T08:42:53;100885.25;;;21.61;47.87
17254;BME280;32542;52.832;13.816;2023-03-22T08:45:57;100889.59;;;21.62;47.75
17254;BME280;32542;52.832;13.816;2023-03-22T08:49:00;100888.69;;;21.63;47.78
17254;BME280;32542;52.832;13.816;2023-03-22T08:52:12;100891.25;;;21.64;47.88
17254;BME280;32542;52.832;13.816;2023-03-22T08:55:32;100895.63;;;21.65;47.89
17254;BME280;32542;52.832;13.816;2023-03-22T08:58:45;100887.81;;;21.62;47.78
17254;BME280;32542;52.832;13.816;2023-03-22T09:02:01;100885.38;;;21.58;47.15
17254;BME280;32542;52.832;13.816;2023-03-22T09:05:05;100879.25;;;21.56;47.30
17254;BME280;32542;52.832;13.816;2023-03-22T09:08:09;100876.59;;;21.56;47.26
17254;BME280;32542;52.832;13.816;2023-03-22T09:11:23;100869.47;;;21.56;47.24
17254;BME280;32542;52.832;13.816;2023-03-22T09:14:26;100872.97;;;21.57;47.36
17254;BME280;32542;52.832;13.816;2023-03-22T09:17:29;100869.38;;;21.58;47.24
17254;BME280;32542;52.832;13.816;2023-03-22T09:20:32;100869.38;;;21.58;47.30
17254;BME280;32542;52.832;13.816;2023-03-22T09:23:37;100858.72;;;21.58;47.38
17254;BME280;32542;52.832;13.816;2023-03-22T09:26:43;100856.84;;;21.60;47.57
17254;BME280;32542;52.832;13.816;2023-03-22T09:29:50;100854.97;;;21.62;47.62
17254;BME280;32542;52.832;13.816;2023-03-22T09:32:53;100851.38;;;21.63;47.77
17254;BME280;32542;52.832;13.816;2023-03-22T09:35:56;100853.97;;;21.64;47.78
17254;BME280;32542;52.832;13.816;2023-03-22T09:39:00;100853.88;;;21.66;47.77
17254;BME280;32542;52.832;13.816;2023-03-22T09:42:20;100861.88;;;21.66;47.77
17254;BME280;32542;52.832;13.816;2023-03-22T09:45:33;100859.19;;;21.66;47.81
17254;BME280;32542;52.832;13.816;2023-03-22T09:48:40;100860.06;;;21.66;47.82
17254;BME280;32542;52.832;13.816;2023-03-22T09:51:46;100863.59;;;21.67;47.73
17254;BME280;32542;52.832;13.816;2023-03-22T09:54:49;100862.66;;;21.68;47.82
17254;BME280;32542;52.832;13.816;2023-03-22T09:58:01;100851.13;;;21.67;47.84
17254;BME280;32542;52.832;13.816;2023-03-22T10:01:13;100853.78;;;21.67;47.87
17254;BME280;32542;52.832;13.816;2023-03-22T10:04:35;100849.22;;;21.69;47.88
17254;BME280;32542;52.832;13.816;2023-03-22T10:07:56;100843.06;;;21.69;47.75
17254;BME280;32542;52.832;13.816;2023-03-22T10:11:01;100840.31;;;21.70;47.79
17254;BME280;32542;52.832;13.816;2023-03-22T10:14:15;100836.72;;;21.71;47.81
17254;BME280;32542;52.832;13.816;2023-03-22T10:17:25;100837.56;;;21.72;47.80
17254;BME280;32542;52.832;13.816;2023-03-22T10:20:35;100833.09;;;21.72;47.75
17254;BME280;32542;52.832;13.816;2023-03-22T10:23:45;100828.66;;;21.73;47.55
17254;BME280;32542;52.832;13.816;2023-03-22T10:26:50;100815.31;;;21.73;47.51
17254;BME280;32542;52.832;13.816;2023-03-22T10:29:58;100813.56;;;21.72;47.41
17254;BME280;32542;52.832;13.816;2023-03-22T10:33:04;100802.91;;;21.72;47.42
17254;BME280;32542;52.832;13.816;2023-03-22T10:36:15;100797.59;;;21.72;47.69
17254;BME280;32542;52.832;13.816;2023-03-22T10:39:26;100801.22;;;21.71;47.80
17254;BME280;32542;52.832;13.816;2023-03-22T10:42:34;100797.59;;;21.72;47.78
17254;BME280;32542;52.832;13.816;2023-03-22T10:45:41;100797.59;;;21.72;47.76
17254;BME280;32542;52.832;13.816;2023-03-22T10:48:45;100789.59;;;21.72;47.74
17254;BME280;32542;52.832;13.816;2023-03-22T10:51:50;100787.69;;;21.74;47.76
17254;BME280;32542;52.832;13.816;2023-03-22T10:54:57;100785.03;;;21.74;47.77
17254;BME280;32542;52.832;13.816;2023-03-22T10:58:11;100782.31;;;21.75;47.73
17254;BME280;32542;52.832;13.816;2023-03-22T11:01:24;100772.50;;;21.76;47.82
17254;BME280;32542;52.832;13.816;2023-03-22T11:04:29;100770.78;;;21.75;47.63
17254;BME280;32542;52.832;13.816;2023-03-22T11:07:36;100766.31;;;21.75;47.85
17254;BME280;32542;52.832;13.816;2023-03-22T11:10:39;100769.81;;;21.76;47.75
17254;BME280;32542;52.832;13.816;2023-03-22T11:13:42;100767.16;;;21.76;47.76
17254;BME280;32542;52.832;13.816;2023-03-22T11:16:55;100761.84;;;21.76;47.81
17254;BME280;32542;52.832;13.816;2023-03-22T11:20:00;100761.84;;;21.76;47.75
17254;BME280;32542;52.832;13.816;2023-03-22T11:23:10;100759.16;;;21.76;47.85
17254;BME280;32542;52.832;13.816;2023-03-22T11:26:25;100751.16;;;21.76;47.79
17254;BME280;32542;52.832;13.816;2023-03-22T11:29:38;100757.38;;;21.76;47.80
17254;BME280;32542;52.832;13.816;2023-03-22T11:32:43;100752.91;;;21.77;47.74
17254;BME280;32542;52.832;13.816;2023-03-22T11:35:52;100749.28;;;21.78;47.82
17254;BME280;32542;52.832;13.816;2023-03-22T11:38:56;100750.16;;;21.78;47.76
17254;BME280;32542;52.832;13.816;2023-03-22T11:42:01;100743.94;;;21.78;47.84
17254;BME280;32542;52.832;13.816;2023-03-22T11:45:09;100743.03;;;21.79;47.85
17254;BME280;32542;52.832;13.816;2023-03-22T11:48:20;100728.81;;;21.78;47.77
17254;BME280;32542;52.832;13.816;2023-03-22T11:51:27;100724.38;;;21.79;47.77
17254;BME280;32542;52.832;13.816;2023-03-22T11:54:34;100716.38;;;21.79;47.77
17254;BME280;32542;52.832;13.816;2023-03-22T11:57:38;100714.56;;;21.80;47.85
17254;BME280;32542;52.832;13.816;2023-03-22T12:00:41;100707.50;;;21.78;47.80
17254;BME280;32542;52.832;13.816;2023-03-22T12:03:50;100703.03;;;21.79;47.82
17254;BME280;32542;52.832;13.816;2023-03-22T12:06:58;100708.38;;;21.79;47.77
17254;BME280;32542;52.832;13.816;2023-03-22T12:10:03;100703.03;;;21.79;47.66
17254;BME280;32542;52.832;13.816;2023-03-22T12:13:13;100699.50;;;21.78;47.74
17254;BME280;32542;52.832;13.816;2023-03-22T12:16:21;100694.19;;;21.78;47.71
17254;BME280;32542;52.832;13.816;2023-03-22T12:19:40;100697.72;;;21.79;47.73
17254;BME280;32542;52.832;13.816;2023-03-22T12:22:48;100691.41;;;21.80;47.60
17254;BME280;32542;52.832;13.816;2023-03-22T12:25:56;100688.75;;;21.80;47.78
17254;BME280;32542;52.832;13.816;2023-03-22T12:29:05;100678.09;;;21.80;47.71
17254;BME280;32542;52.832;13.816;2023-03-22T12:32:14;100672.75;;;21.80;47.72
17254;BME280;32542;52.832;13.816;2023-03-22T12:35:23;100665.63;;;21.81;47.87
17254;BME280;32542;52.832;13.816;2023-03-22T12:38:33;100655.84;;;21.81;47.82
17254;BME280;32542;52.832;13.816;2023-03-22T12:41:42;100648.72;;;21.82;47.93
17254;BME280;32542;52.832;13.816;2023-03-22T12:44:47;100646.94;;;21.82;47.92
17254;BME280;32542;52.832;13.816;2023-03-22T12:48:11;100633.63;;;21.82;48.03
17254;BME280;32542;52.832;13.816;2023-03-22T12:51:17;100644.28;;;21.82;47.89
17254;BME280;32542;52.832;13.816;2023-03-22T12:54:22;100632.66;;;21.83;48.06
17254;BME280;32542;52.832;13.816;2023-03-22T12:57:26;100642.38;;;21.84;47.93
17254;BME280;32542;52.832;13.816;2023-03-22T13:00:33;100623.63;;;21.86;47.96
17254;BME280;32542;52.832;13.816;2023-03-22T13:03:43;100635.16;;;21.86;48.00
17254;BME280;32542;52.832;13.816;2023-03-22T13:06:57;100635.94;;;21.88;47.92
17254;BME280;32542;52.832;13.816;2023-03-22T13:13:49;100628.78;;;21.89;47.83
17254;BME280;32542;52.832;13.816;2023-03-22T13:16:55;100627.09;;;21.88;47.86
17254;BME280;32542;52.832;13.816;2023-03-22T13:20:19;100624.41;;;21.88;47.92
17254;BME280;32542;52.832;13.816;2023-03-22T13:23:27;100622.63;;;21.88;47.79
17254;BME280;32542;52.832;13.816;2023-03-22T13:26:34;100631.44;;;21.89;47.96
17254;BME280;32542;52.832;13.816;2023-03-22T13:29:38;100627.94;;;21.88;47.86
17254;BME280;32542;52.832;13.816;2023-03-22T13:32:46;100621.66;;;21.89;47.69
17254;BME280;32542;52.832;13.816;2023-03-22T13:35:57;100614.53;;;21.90;47.88
17254;BME280;32542;52.832;13.816;2023-03-22T13:39:08;100625.09;;;21.91;47.89
17254;BME280;32542;52.832;13.816;2023-03-22T13:42:17;100612.63;;;21.92;47.87
17254;BME280;32542;52.832;13.816;2023-03-22T13:45:29;100616.16;;;21.92;47.88
17254;BME280;32542;52.832;13.816;2023-03-22T13:48:42;100611.75;;;21.91;47.83
17254;BME280;32542;52.832;13.816;2023-03-22T13:51:54;100613.50;;;21.92;47.72
17254;BME280;32542;52.832;13.816;2023-03-22T13:55:00;100611.75;;;21.91;47.66
17254;BME280;32542;52.832;13.816;2023-03-22T13:58:03;100604.72;;;21.90;47.71
17254;BME280;32542;52.832;13.816;2023-03-22T14:01:13;100608.31;;;21.89;47.82
17254;BME280;32542;52.832;13.816;2023-03-22T14:04:21;100592.31;;;21.89;48.13
17254;BME280;32542;52.832;13.816;2023-03-22T14:07:29;100597.75;;;21.88;48.06
17254;BME280;32542;52.832;13.816;2023-03-22T14:10:39;100585.28;;;21.88;47.93
17254;BME280;32542;52.832;13.816;2023-03-22T14:13:48;100595.97;;;21.88;48.08
17254;BME280;32542;52.832;13.816;2023-03-22T14:16:58;100593.28;;;21.88;47.99
17254;BME280;32542;52.832;13.816;2023-03-22T14:20:05;100591.47;;;21.89;48.11
17254;BME280;32542;52.832;13.816;2023-03-22T14:23:13;100579.09;;;21.88;47.69
17254;BME280;32542;52.832;13.816;2023-03-22T14:26:21;100587.97;;;21.88;47.97
17254;BME280;32542;52.832;13.816;2023-03-22T14:29:25;100586.22;;;21.87;47.98
17254;BME280;32542;52.832;13.816;2023-03-22T14:32:28;100581.75;;;21.88;47.96
17254;BME280;32542;52.832;13.816;2023-03-22T14:35:33;100586.13;;;21.89;47.96
17254;BME280;32542;52.832;13.816;2023-03-22T14:38:39;100579.97;;;21.88;47.94
17254;BME280;32542;52.832;13.816;2023-03-22T14:42:00;100579.00;;;21.89;47.84
17254;BME280;32542;52.832;13.816;2023-03-22T14:45:05;100579.97;;;21.88;47.97
17254;BME280;32542;52.832;13.816;2023-03-22T14:48:16;100585.19;;;21.90;47.93
17254;BME280;32542;52.832;13.816;2023-03-22T14:51:23;100581.66;;;21.89;47.92
17254;BME280;32542;52.832;13.816;2023-03-22T14:54:27;100578.13;;;21.89;47.86
17254;BME280;32542;52.832;13.816;2023-03-22T14:57:35;100579.00;;;21.89;47.88
17254;BME280;32542;52.832;13.816;2023-03-22T15:00:39;100579.97;;;21.88;47.85
17254;BME280;32542;52.832;13.816;2023-03-22T15:03:42;100570.13;;;21.89;47.85
17254;BME280;32542;52.832;13.816;2023-03-22T15:06:47;100579.97;;;21.88;47.88
17254;BME280;32542;52.832;13.816;2023-03-22T15:09:50;100581.66;;;21.89;47.80
17254;BME280;32542;52.832;13.816;2023-03-22T15:12:54;100573.66;;;21.89;47.82
17254;BME280;32542;52.832;13.816;2023-03-22T15:15:57;100574.53;;;21.90;47.88
17254;BME280;32542;52.832;13.816;2023-03-22T15:19:00;100564.81;;;21.89;47.86
17254;BME280;32542;52.832;13.816;2023-03-22T15:22:05;100565.66;;;21.89;47.69
17254;BME280;32542;52.832;13.816;2023-03-22T15:25:11;100551.47;;;21.89;47.69
17254;BME280;32542;52.832;13.816;2023-03-22T15:28:17;100555.00;;;21.89;47.71
17254;BME280;32542;52.832;13.816;2023-03-22T15:31:23;100559.47;;;21.89;47.62
17254;BME280;32542;52.832;13.816;2023-03-22T15:34:27;100555.09;;;21.88;47.63
17254;BME280;32542;52.832;13.816;2023-03-22T15:37:33;100557.78;;;21.88;47.74
17254;BME280;32542;52.832;13.816;2023-03-22T15:40:37;100547.97;;;21.88;47.63
17254;BME280;32542;52.832;13.816;2023-03-22T15:43:41;100552.44;;;21.88;47.63
17254;BME280;32542;52.832;13.816;2023-03-22T15:46:48;100547.19;;;21.86;47.63
17254;BME280;32542;52.832;13.816;2023-03-22T15:49:54;100552.53;;;21.86;47.59
17254;BME280;32542;52.832;13.816;2023-03-22T15:52:57;100545.47;;;21.85;47.63
17254;BME280;32542;52.832;13.816;2023-03-22T15:56:00;100548.13;;;21.85;47.63
17254;BME280;32542;52.832;13.816;2023-03-22T15:59:15;100553.47;;;21.85;47.65
17254;BME280;32542;52.832;13.816;2023-03-22T16:02:28;100559.66;;;21.86;47.71
17254;BME280;32542;52.832;13.816;2023-03-22T16:05:32;100564.03;;;21.87;47.63
17254;BME280;32542;52.832;13.816;2023-03-22T16:08:35;100559.66;;;21.86;47.71
17254;BME280;32542;52.832;13.816;2023-03-22T16:11:37;100559.56;;;21.87;47.73
17254;BME280;32542;52.832;13.816;2023-03-22T16:14:40;100559.66;;;21.86;47.82
17254;BME280;32542;52.832;13.816;2023-03-22T16:17:42;100556.13;;;21.85;47.74